sensor_id;sensor_type;location;lat;lon;timestamp;pressure;altitude;pressure_sealevel;temperature;humidity
51687;BME280;37774;52.192;4.584;2023-04-06T00:01:55;101933.19;;;2.54;100.00
51687;BME280;37774;52.192;4.584;2023-04-06T00:04:41;101965.66;;;2.73;100.00
51687;BME280;37774;52.192;4.584;2023-04-06T00:07:26;101868.91;;;2.11;100.00
51687;BME280;37774;52.192;4.584;2023-04-06T00:10:12;101955.91;;;2.85;100.00
51687;BME280;37774;52.192;4.584;2023-04-06T00:12:58;101954.06;;;2.83;100.00
51687;BME280;37774;52.192;4.584;2023-04-06T00:15:45;101955.47;;;2.96;100.00
51687;BME280;37774;52.192;4.584;2023-04-06T00:18:30;101953.16;;;3.02;100.00
51687;BME280;37774;52.192;4.584;2023-04-06T00:21:16;101964.38;;;3.04;100.00
51687;BME280;37774;52.192;4.584;2023-04-06T00:24:02;101947.50;;;3.11;100.00
51687;BME280;37774;52.192;4.584;2023-04-06T00:26:47;101948.28;;;3.08;100.00
51687;BME280;37774;52.192;4.584;2023-04-06T00:29:33;101941.50;;;3.10;100.00
51687;BME280;37774;52.192;4.584;2023-04-06T00:32:20;101937.31;;;3.12;100.00
51687;BME280;37774;52.192;4.584;2023-04-06T00:35:06;101934.75;;;3.12;100.00
51687;BME280;37774;52.192;4.584;2023-04-06T00:37:51;101915.50;;;2.81;100.00
51687;BME280;37774;52.192;4.584;2023-04-06T00:40:37;101929.00;;;2.97;100.00
51687;BME280;37774;52.192;4.584;2023-04-06T00:43:23;101917.94;;;2.99;100.00
51687;BME280;37774;52.192;4.584;2023-04-06T00:46:09;101874.44;;;2.81;100.00
51687;BME280;37774;52.192;4.584;2023-04-06T00:48:56;101869.03;;;2.54;100.00
51687;BME280;37774;52.192;4.584;2023-04-06T00:51:41;101914.06;;;3.09;100.00
51687;BME280;37774;52.192;4.584;2023-04-06T00:54:27;101918.66;;;3.16;100.00
51687;BME280;37774;52.192;4.584;2023-04-06T00:57:13;101769.88;;;2.34;100.00
51687;BME280;37774;52.192;4.584;2023-04-06T00:59:58;101865.09;;;2.83;100.00
51687;BME280;37774;52.192;4.584;2023-04-06T01:02:44;101912.13;;;3.25;100.00
51687;BME280;37774;52.192;4.584;2023-04-06T01:05:33;101846.31;;;2.84;100.00
51687;BME280;37774;52.192;4.584;2023-04-06T01:08:19;101776.16;;;2.41;100.00
51687;BME280;37774;52.192;4.584;2023-04-06T01:11:04;101721.88;;;2.11;100.00
51687;BME280;37774;52.192;4.584;2023-04-06T01:13:50;101790.53;;;2.38;100.00
51687;BME280;37774;52.192;4.584;2023-04-06T01:16:36;101831.13;;;2.48;100.00
51687;BME280;37774;52.192;4.584;2023-04-06T01:19:22;101846.53;;;2.68;100.00
51687;BME280;37774;52.192;4.584;2023-04-06T01:22:14;101879.13;;;2.91;100.00
51687;BME280;37774;52.192;4.584;2023-04-06T01:25:00;101849.50;;;2.78;100.00
51687;BME280;37774;52.192;4.584;2023-04-06T01:27:45;101801.84;;;2.43;100.00
51687;BME280;37774;52.192;4.584;2023-04-06T01:30:31;101867.00;;;2.87;100.00
51687;BME280;37774;52.192;4.584;2023-04-06T01:33:16;101837.59;;;2.59;100.00
51687;BME280;37774;52.192;4.584;2023-04-06T01:36:02;101856.47;;;2.81;100.00
51687;BME280;37774;52.192;4.584;2023-04-06T01:38:49;101783.72;;;2.38;100.00
51687;BME280;37774;52.192;4.584;2023-04-06T01:41:35;101790.41;;;2.34;100.00
51687;BME280;37774;52.192;4.584;2023-04-06T01:44:20;101793.41;;;2.24;100.00
51687;BME280;37774;52.192;4.584;2023-04-06T01:47:06;101721.00;;;1.89;100.00
51687;BME280;37774;52.192;4.584;2023-04-06T01:49:51;101816.25;;;2.60;100.00
51687;BME280;37774;52.192;4.584;2023-04-06T01:52:37;101792.91;;;2.54;100.00
51687;BME280;37774;52.192;4.584;2023-04-06T01:55:24;101849.63;;;2.82;100.00
51687;BME280;37774;52.192;4.584;2023-04-06T01:58:10;101829.03;;;2.80;100.00
51687;BME280;37774;52.192;4.584;2023-04-06T02:00:55;101841.44;;;2.90;100.00
51687;BME280;37774;52.192;4.584;2023-04-06T02:03:41;101838.63;;;2.84;100.00
51687;BME280;37774;52.192;4.584;2023-04-06T02:06:26;101828.53;;;2.89;100.00
51687;BME280;37774;52.192;4.584;2023-04-06T02:09:12;101722.38;;;2.23;100.00
51687;BME280;37774;52.192;4.584;2023-04-06T02:11:59;101856.75;;;2.89;100.00
51687;BME280;37774;52.192;4.584;2023-04-06T02:14:45;101759.50;;;2.53;100.00
51687;BME280;37774;52.192;4.584;2023-04-06T02:17:31;101710.69;;;2.30;100.00
51687;BME280;37774;52.192;4.584;2023-04-06T02:20:16;101651.50;;;2.04;100.00
51687;BME280;37774;52.192;4.584;2023-04-06T02:23:02;101755.44;;;2.81;100.00
51687;BME280;37774;52.192;4.584;2023-04-06T02:25:47;101807.31;;;3.16;100.00
51687;BME280;37774;52.192;4.584;2023-04-06T02:28:34;101698.25;;;2.39;100.00
51687;BME280;37774;52.192;4.584;2023-04-06T02:31:20;101808.19;;;3.16;100.00
51687;BME280;37774;52.192;4.584;2023-04-06T02:34:06;101744.00;;;2.72;100.00
51687;BME280;37774;52.192;4.584;2023-04-06T02:36:54;101802.22;;;3.17;100.00
51687;BME280;37774;52.192;4.584;2023-04-06T02:39:41;101799.59;;;3.16;100.00
51687;BME280;37774;52.192;4.584;2023-04-06T02:42:26;101685.00;;;2.51;100.00
51687;BME280;37774;52.192;4.584;2023-04-06T02:45:13;101763.28;;;3.06;100.00
51687;BME280;37774;52.192;4.584;2023-04-06T02:47:59;101758.97;;;3.05;100.00
51687;BME280;37774;52.192;4.584;2023-04-06T02:50:44;101730.25;;;2.93;100.00
51687;BME280;37774;52.192;4.584;2023-04-06T02:53:30;101648.50;;;2.58;100.00
51687;BME280;37774;52.192;4.584;2023-04-06T02:56:15;101664.28;;;2.68;100.00
51687;BME280;37774;52.192;4.584;2023-04-06T02:59:01;101731.75;;;3.11;100.00
51687;BME280;37774;52.192;4.584;2023-04-06T03:01:48;101771.28;;;3.37;100.00
51687;BME280;37774;52.192;4.584;2023-04-06T03:04:34;101747.28;;;3.14;100.00
51687;BME280;37774;52.192;4.584;2023-04-06T03:07:19;101770.66;;;3.20;100.00
51687;BME280;37774;52.192;4.584;2023-04-06T03:10:06;101717.50;;;2.95;100.00
51687;BME280;37774;52.192;4.584;2023-04-06T03:12:51;101739.53;;;3.12;100.00
51687;BME280;37774;52.192;4.584;2023-04-06T03:15:37;101714.34;;;3.02;100.00
51687;BME280;37774;52.192;4.584;2023-04-06T03:18:25;101550.66;;;2.03;100.00
51687;BME280;37774;52.192;4.584;2023-04-06T03:21:10;101761.66;;;3.31;100.00
51687;BME280;37774;52.192;4.584;2023-04-06T03:23:55;101527.84;;;1.88;100.00
51687;BME280;37774;52.192;4.584;2023-04-06T03:26:41;101754.13;;;3.36;100.00
51687;BME280;37774;52.192;4.584;2023-04-06T03:29:26;101752.53;;;3.40;100.00
51687;BME280;37774;52.192;4.584;2023-04-06T03:32:12;101720.16;;;3.20;100.00
51687;BME280;37774;52.192;4.584;2023-04-06T03:34:58;101465.88;;;1.76;100.00
51687;BME280;37774;52.192;4.584;2023-04-06T03:37:44;101723.97;;;3.32;100.00
51687;BME280;37774;52.192;4.584;2023-04-06T03:40:30;101697.97;;;3.22;100.00
51687;BME280;37774;52.192;4.584;2023-04-06T03:43:15;101497.66;;;1.81;100.00
51687;BME280;37774;52.192;4.584;2023-04-06T03:46:01;101679.47;;;3.09;100.00
51687;BME280;37774;52.192;4.584;2023-04-06T03:48:48;101649.78;;;2.92;100.00
51687;BME280;37774;52.192;4.584;2023-04-06T03:51:35;101613.19;;;2.74;100.00
51687;BME280;37774;52.192;4.584;2023-04-06T03:54:21;101594.91;;;2.66;100.00
51687;BME280;37774;52.192;4.584;2023-04-06T03:57:06;101626.63;;;2.91;100.00
51687;BME280;37774;52.192;4.584;2023-04-06T03:59:52;101687.09;;;3.30;100.00
51687;BME280;37774;52.192;4.584;2023-04-06T04:02:37;101738.03;;;3.66;100.00
51687;BME280;37774;52.192;4.584;2023-04-06T04:05:22;101732.91;;;3.66;100.00
51687;BME280;37774;52.192;4.584;2023-04-06T04:08:10;101733.00;;;3.69;100.00
51687;BME280;37774;52.192;4.584;2023-04-06T04:10:56;101620.28;;;3.05;100.00
51687;BME280;37774;52.192;4.584;2023-04-06T04:13:41;101668.69;;;3.42;100.00
51687;BME280;37774;52.192;4.584;2023-04-06T04:16:27;101490.28;;;2.12;100.00
51687;BME280;37774;52.192;4.584;2023-04-06T04:19:13;101686.28;;;3.55;100.00
51687;BME280;37774;52.192;4.584;2023-04-06T04:21:59;101679.22;;;3.49;100.00
51687;BME280;37774;52.192;4.584;2023-04-06T04:24:46;101725.69;;;3.80;100.00
51687;BME280;37774;52.192;4.584;2023-04-06T04:27:31;101734.53;;;3.88;100.00
51687;BME280;37774;52.192;4.584;2023-04-06T04:30:17;101735.41;;;3.89;100.00
51687;BME280;37774;52.192;4.584;2023-04-06T04:33:02;101681.16;;;3.57;100.00
51687;BME280;37774;52.192;4.584;2023-04-06T04:35:48;101609.25;;;3.08;100.00
51687;BME280;37774;52.192;4.584;2023-04-06T04:38:33;101652.13;;;3.33;100.00
51687;BME280;37774;52.192;4.584;2023-04-06T04:41:21;101645.75;;;3.24;100.00
51687;BME280;37774;52.192;4.584;2023-04-06T04:44:06;101736.25;;;3.88;100.00
51687;BME280;37774;52.192;4.584;2023-04-06T04:46:51;101682.06;;;3.57;100.00
51687;BME280;37774;52.192;4.584;2023-04-06T04:49:37;101730.31;;;3.90;100.00
51687;BME280;37774;52.192;4.584;2023-04-06T04:52:22;101731.13;;;3.89;100.00
51687;BME280;37774;52.192;4.584;2023-04-06T04:55:08;101692.69;;;3.68;100.00
51687;BME280;37774;52.192;4.584;2023-04-06T04:57:55;101737.94;;;3.87;100.00
51687;BME280;37774;52.192;4.584;2023-04-06T05:00:40;101670.69;;;3.50;100.00
51687;BME280;37774;52.192;4.584;2023-04-06T05:03:27;101234.47;;;1.07;100.00
51687;BME280;37774;52.192;4.584;2023-04-06T05:06:12;101187.47;;;0.82;100.00
51687;BME280;37774;52.192;4.584;2023-04-06T05:08:57;101383.94;;;1.78;100.00
51687;BME280;37774;52.192;4.584;2023-04-06T05:11:46;101454.50;;;2.15;100.00
51687;BME280;37774;52.192;4.584;2023-04-06T05:14:33;101399.44;;;2.05;100.00
51687;BME280;37774;52.192;4.584;2023-04-06T05:17:19;101475.66;;;2.32;100.00
51687;BME280;37774;52.192;4.584;2023-04-06T05:20:06;101763.03;;;3.94;100.00
51687;BME280;37774;52.192;4.584;2023-04-06T05:22:51;101582.19;;;3.18;100.00
51687;BME280;37774;52.192;4.584;2023-04-06T05:25:37;101661.09;;;3.71;100.00
51687;BME280;37774;52.192;4.584;2023-04-06T05:28:22;101447.28;;;2.52;100.00
51687;BME280;37774;52.192;4.584;2023-04-06T05:31:10;101672.69;;;3.84;100.00
51687;BME280;37774;52.192;4.584;2023-04-06T05:33:56;101152.00;;;0.92;100.00
51687;BME280;37774;52.192;4.584;2023-04-06T05:36:41;101668.88;;;3.98;100.00
51687;BME280;37774;52.192;4.584;2023-04-06T05:39:27;101689.34;;;4.22;100.00
51687;BME280;37774;52.192;4.584;2023-04-06T05:42:12;101633.47;;;3.91;100.00
51687;BME280;37774;52.192;4.584;2023-04-06T05:44:59;101572.06;;;3.47;100.00
51687;BME280;37774;52.192;4.584;2023-04-06T05:47:45;101619.63;;;3.87;100.00
51687;BME280;37774;52.192;4.584;2023-04-06T05:50:31;101643.72;;;3.89;100.00
51687;BME280;37774;52.192;4.584;2023-04-06T05:53:17;101662.75;;;4.22;100.00
51687;BME280;37774;52.192;4.584;2023-04-06T05:56:04;101597.09;;;3.78;100.00
51687;BME280;37774;52.192;4.584;2023-04-06T05:58:50;101653.28;;;4.21;100.00
51687;BME280;37774;52.192;4.584;2023-04-06T06:01:37;101398.34;;;2.47;100.00
51687;BME280;37774;52.192;4.584;2023-04-06T06:04:25;101514.22;;;3.34;100.00
51687;BME280;37774;52.192;4.584;2023-04-06T06:07:11;101732.78;;;4.66;100.00
51687;BME280;37774;52.192;4.584;2023-04-06T06:09:56;101706.19;;;4.67;100.00
51687;BME280;37774;52.192;4.584;2023-04-06T06:12:42;101702.50;;;4.59;100.00
51687;BME280;37774;52.192;4.584;2023-04-06T06:15:28;101655.88;;;4.48;100.00
51687;BME280;37774;52.192;4.584;2023-04-06T06:18:14;101710.09;;;4.82;100.00
51687;BME280;37774;52.192;4.584;2023-04-06T06:21:01;101624.53;;;4.34;100.00
51687;BME280;37774;52.192;4.584;2023-04-06T06:23:46;101701.75;;;4.91;100.00
51687;BME280;37774;52.192;4.584;2023-04-06T06:26:33;101657.34;;;4.69;100.00
51687;BME280;37774;52.192;4.584;2023-04-06T06:29:21;101594.66;;;4.38;100.00
51687;BME280;37774;52.192;4.584;2023-04-06T06:32:07;101685.63;;;4.96;100.00
51687;BME280;37774;52.192;4.584;2023-04-06T06:34:53;101704.25;;;5.18;100.00
51687;BME280;37774;52.192;4.584;2023-04-06T06:37:40;101589.63;;;4.43;100.00
51687;BME280;37774;52.192;4.584;2023-04-06T06:40:26;101707.94;;;5.26;100.00
51687;BME280;37774;52.192;4.584;2023-04-06T06:43:11;101707.19;;;5.31;100.00
51687;BME280;37774;52.192;4.584;2023-04-06T06:45:57;101608.19;;;4.61;100.00
51687;BME280;37774;52.192;4.584;2023-04-06T06:48:42;101694.97;;;5.23;100.00
51687;BME280;37774;52.192;4.584;2023-04-06T06:51:28;101708.66;;;5.53;100.00
51687;BME280;37774;52.192;4.584;2023-04-06T06:54:15;101711.28;;;5.54;100.00
51687;BME280;37774;52.192;4.584;2023-04-06T06:57:00;101706.19;;;5.58;100.00
51687;BME280;37774;52.192;4.584;2023-04-06T06:59:46;101693.72;;;5.73;100.00
51687;BME280;37774;52.192;4.584;2023-04-06T07:02:33;101598.69;;;5.21;100.00
51687;BME280;37774;52.192;4.584;2023-04-06T07:05:19;101701.03;;;5.90;100.00
51687;BME280;37774;52.192;4.584;2023-04-06T07:08:04;101575.97;;;5.40;100.00
51687;BME280;37774;52.192;4.584;2023-04-06T07:10:52;101676.59;;;6.09;100.00
51687;BME280;37774;52.192;4.584;2023-04-06T07:13:39;101572.19;;;5.61;100.00
51687;BME280;37774;52.192;4.584;2023-04-06T07:16:25;101666.75;;;6.29;100.00
51687;BME280;37774;52.192;4.584;2023-04-06T07:19:10;101679.16;;;6.44;100.00
51687;BME280;37774;52.192;4.584;2023-04-06T07:21:56;101692.84;;;6.41;100.00
51687;BME280;37774;52.192;4.584;2023-04-06T07:24:41;101564.88;;;5.78;100.00
51687;BME280;37774;52.192;4.584;2023-04-06T07:27:28;101573.88;;;5.94;100.00
51687;BME280;37774;52.192;4.584;2023-04-06T07:30:14;101660.66;;;6.65;100.00
51687;BME280;37774;52.192;4.584;2023-04-06T07:32:59;101485.63;;;5.72;100.00
51687;BME280;37774;52.192;4.584;2023-04-06T07:35:45;101553.81;;;6.20;100.00
51687;BME280;37774;52.192;4.584;2023-04-06T07:38:31;101532.53;;;6.31;100.00
51687;BME280;37774;52.192;4.584;2023-04-06T07:41:17;101652.22;;;7.14;100.00
51687;BME280;37774;52.192;4.584;2023-04-06T07:44:04;101615.75;;;7.00;100.00
51687;BME280;37774;52.192;4.584;2023-04-06T07:46:50;101651.72;;;7.34;100.00
51687;BME280;37774;52.192;4.584;2023-04-06T07:49:35;101548.59;;;7.01;100.00
51687;BME280;37774;52.192;4.584;2023-04-06T07:52:21;101614.66;;;7.35;100.00
51687;BME280;37774;52.192;4.584;2023-04-06T07:55:07;101643.56;;;7.59;100.00
51687;BME280;37774;52.192;4.584;2023-04-06T07:57:53;101588.97;;;7.44;100.00
51687;BME280;37774;52.192;4.584;2023-04-06T08:00:39;101648.00;;;7.67;100.00
51687;BME280;37774;52.192;4.584;2023-04-06T08:03:25;101646.25;;;7.64;100.00
51687;BME280;37774;52.192;4.584;2023-04-06T08:06:10;101613.25;;;7.51;100.00
51687;BME280;37774;52.192;4.584;2023-04-06T08:08:55;101586.38;;;7.42;100.00
51687;BME280;37774;52.192;4.584;2023-04-06T08:11:41;101647.41;;;7.83;100.00
51687;BME280;37774;52.192;4.584;2023-04-06T08:14:28;101647.16;;;7.68;100.00
51687;BME280;37774;52.192;4.584;2023-04-06T08:17:15;101638.78;;;7.84;100.00
51687;BME280;37774;52.192;4.584;2023-04-06T08:20:00;101509.31;;;7.23;100.00
51687;BME280;37774;52.192;4.584;2023-04-06T08:22:47;101640.88;;;8.04;100.00
51687;BME280;37774;52.192;4.584;2023-04-06T08:25:33;101640.81;;;8.01;100.00
51687;BME280;37774;52.192;4.584;2023-04-06T08:28:19;101645.16;;;8.02;100.00
51687;BME280;37774;52.192;4.584;2023-04-06T08:31:05;101616.25;;;7.77;100.00
51687;BME280;37774;52.192;4.584;2023-04-06T08:33:52;101646.66;;;7.89;100.00
51687;BME280;37774;52.192;4.584;2023-04-06T08:36:37;101618.84;;;7.75;100.00
51687;BME280;37774;52.192;4.584;2023-04-06T08:39:22;101631.31;;;8.00;100.00
51687;BME280;37774;52.192;4.584;2023-04-06T08:42:12;101593.16;;;7.88;100.00
51687;BME280;37774;52.192;4.584;2023-04-06T08:45:01;101615.88;;;8.08;100.00
51687;BME280;37774;52.192;4.584;2023-04-06T08:47:48;101620.25;;;8.10;100.00
51687;BME280;37774;52.192;4.584;2023-04-06T08:50:38;101581.06;;;7.88;100.00
51687;BME280;37774;52.192;4.584;2023-04-06T08:53:23;101557.53;;;7.73;100.00
51687;BME280;37774;52.192;4.584;2023-04-06T08:56:09;101614.94;;;8.02;100.00
51687;BME280;37774;52.192;4.584;2023-04-06T08:58:55;101573.38;;;7.93;100.00
51687;BME280;37774;52.192;4.584;2023-04-06T09:01:42;101606.41;;;8.10;100.00
51687;BME280;37774;52.192;4.584;2023-04-06T09:04:29;101574.50;;;8.11;100.00
51687;BME280;37774;52.192;4.584;2023-04-06T09:07:17;101603.19;;;8.25;100.00
51687;BME280;37774;52.192;4.584;2023-04-06T09:10:03;101548.06;;;7.73;100.00
51687;BME280;37774;52.192;4.584;2023-04-06T09:12:48;101528.97;;;7.65;100.00
51687;BME280;37774;52.192;4.584;2023-04-06T09:15:34;101604.97;;;8.29;100.00
51687;BME280;37774;52.192;4.584;2023-04-06T09:18:28;101487.06;;;7.33;100.00
51687;BME280;37774;52.192;4.584;2023-04-06T09:21:16;101603.75;;;8.03;100.00
51687;BME280;37774;52.192;4.584;2023-04-06T09:24:05;101518.34;;;7.47;100.00
51687;BME280;37774;52.192;4.584;2023-04-06T09:26:51;101562.91;;;7.85;100.00
51687;BME280;37774;52.192;4.584;2023-04-06T09:29:37;101340.09;;;6.47;100.00
51687;BME280;37774;52.192;4.584;2023-04-06T09:32:22;101592.31;;;7.90;100.00
51687;BME280;37774;52.192;4.584;2023-04-06T09:35:10;101563.28;;;8.10;100.00
51687;BME280;37774;52.192;4.584;2023-04-06T09:37:55;101520.91;;;8.02;100.00
51687;BME280;37774;52.192;4.584;2023-04-06T09:40:50;101476.22;;;7.54;100.00
51687;BME280;37774;52.192;4.584;2023-04-06T09:43:35;101578.91;;;8.16;100.00
51687;BME280;37774;52.192;4.584;2023-04-06T09:46:21;101573.94;;;8.32;100.00
51687;BME280;37774;52.192;4.584;2023-04-06T09:49:10;101474.47;;;7.53;100.00
51687;BME280;37774;52.192;4.584;2023-04-06T09:51:59;101504.72;;;7.57;100.00
51687;BME280;37774;52.192;4.584;2023-04-06T09:54:46;101557.28;;;8.13;100.00
51687;BME280;37774;52.192;4.584;2023-04-06T09:57:40;101549.31;;;7.99;100.00
51687;BME280;37774;52.192;4.584;2023-04-06T10:00:29;101498.75;;;7.63;100.00
51687;BME280;37774;52.192;4.584;2023-04-06T10:03:25;101477.69;;;7.39;100.00
51687;BME280;37774;52.192;4.584;2023-04-06T10:06:14;101542.59;;;8.12;100.00
51687;BME280;37774;52.192;4.584;2023-04-06T10:09:02;101487.41;;;7.53;100.00
51687;BME280;37774;52.192;4.584;2023-04-06T10:11:49;101565.81;;;8.06;100.00
51687;BME280;37774;52.192;4.584;2023-04-06T10:14:37;101484.91;;;7.59;100.00
51687;BME280;37774;52.192;4.584;2023-04-06T10:17:23;101471.78;;;7.47;100.00
51687;BME280;37774;52.192;4.584;2023-04-06T10:20:12;101557.78;;;7.88;100.00
51687;BME280;37774;52.192;4.584;2023-04-06T10:23:08;101517.97;;;7.79;100.00
51687;BME280;37774;52.192;4.584;2023-04-06T10:25:56;101565.97;;;8.18;100.00
51687;BME280;37774;52.192;4.584;2023-04-06T10:28:45;101508.16;;;7.57;100.00
51687;BME280;37774;52.192;4.584;2023-04-06T10:31:42;101446.31;;;7.16;100.00
51687;BME280;37774;52.192;4.584;2023-04-06T10:34:34;101459.75;;;7.50;100.00
51687;BME280;37774;52.192;4.584;2023-04-06T10:37:45;101355.56;;;6.99;100.00
51687;BME280;37774;52.192;4.584;2023-04-06T10:40:45;101188.53;;;5.89;100.00
51687;BME280;37774;52.192;4.584;2023-04-06T10:43:41;101353.44;;;6.73;100.00
51687;BME280;37774;52.192;4.584;2023-04-06T10:49:45;101107.97;;;5.07;100.00
51687;BME280;37774;52.192;4.584;2023-04-06T10:52:33;101145.63;;;5.46;100.00
51687;BME280;37774;52.192;4.584;2023-04-06T10:55:40;101288.47;;;6.48;100.00
51687;BME280;37774;52.192;4.584;2023-04-06T10:58:36;101580.44;;;8.02;100.00
51687;BME280;37774;52.192;4.584;2023-04-06T11:01:25;101317.78;;;6.50;100.00
51687;BME280;37774;52.192;4.584;2023-04-06T11:04:19;101129.84;;;5.28;100.00
51687;BME280;37774;52.192;4.584;2023-04-06T11:07:10;101398.63;;;6.97;100.00
51687;BME280;37774;52.192;4.584;2023-04-06T11:10:03;101179.44;;;5.62;100.00
51687;BME280;37774;52.192;4.584;2023-04-06T11:15:55;101588.16;;;8.00;100.00
51687;BME280;37774;52.192;4.584;2023-04-06T11:18:51;101571.69;;;7.95;100.00
51687;BME280;37774;52.192;4.584;2023-04-06T11:21:38;101311.53;;;6.37;100.00
51687;BME280;37774;52.192;4.584;2023-04-06T11:24:27;101511.69;;;7.63;100.00
51687;BME280;37774;52.192;4.584;2023-04-06T11:27:13;101532.31;;;7.58;100.00
51687;BME280;37774;52.192;4.584;2023-04-06T11:30:00;101480.22;;;7.35;100.00
51687;BME280;37774;52.192;4.584;2023-04-06T11:32:46;101545.59;;;7.81;100.00
51687;BME280;37774;52.192;4.584;2023-04-06T11:35:31;101415.22;;;7.11;100.00
51687;BME280;37774;52.192;4.584;2023-04-06T11:38:18;101359.25;;;6.61;100.00
51687;BME280;37774;52.192;4.584;2023-04-06T11:41:06;101375.66;;;6.63;100.00
51687;BME280;37774;52.192;4.584;2023-04-06T11:43:55;101528.75;;;7.51;100.00
51687;BME280;37774;52.192;4.584;2023-04-06T11:46:40;101513.13;;;7.45;100.00
51687;BME280;37774;52.192;4.584;2023-04-06T11:49:26;101538.53;;;7.71;100.00
51687;BME280;37774;52.192;4.584;2023-04-06T11:52:17;101456.75;;;7.22;100.00
51687;BME280;37774;52.192;4.584;2023-04-06T11:55:11;101614.97;;;8.04;100.00
51687;BME280;37774;52.192;4.584;2023-04-06T11:57:59;101541.13;;;7.69;100.00
51687;BME280;37774;52.192;4.584;2023-04-06T12:00:45;101581.06;;;7.87;100.00
51687;BME280;37774;52.192;4.584;2023-04-06T12:03:31;101473.22;;;7.27;100.00
51687;BME280;37774;52.192;4.584;2023-04-06T12:06:16;101407.69;;;6.73;100.00
51687;BME280;37774;52.192;4.584;2023-04-06T12:09:02;101571.50;;;7.84;100.00
51687;BME280;37774;52.192;4.584;2023-04-06T12:11:47;101623.88;;;8.22;100.00
51687;BME280;37774;52.192;4.584;2023-04-06T12:14:34;101539.88;;;7.47;100.00
51687;BME280;37774;52.192;4.584;2023-04-06T12:17:19;101545.31;;;7.63;100.00
51687;BME280;37774;52.192;4.584;2023-04-06T12:20:06;101430.00;;;6.68;100.00
51687;BME280;37774;52.192;4.584;2023-04-06T12:22:52;101640.28;;;7.68;100.00
51687;BME280;37774;52.192;4.584;2023-04-06T12:25:39;101640.97;;;7.59;100.00
51687;BME280;37774;52.192;4.584;2023-04-06T12:28:26;101640.88;;;7.53;100.00
51687;BME280;37774;52.192;4.584;2023-04-06T12:31:16;101510.28;;;6.80;100.00
51687;BME280;37774;52.192;4.584;2023-04-06T12:34:02;101370.78;;;5.88;100.00
51687;BME280;37774;52.192;4.584;2023-04-06T12:36:48;101610.72;;;7.54;100.00
51687;BME280;37774;52.192;4.584;2023-04-06T12:39:36;101404.91;;;6.14;100.00
51687;BME280;37774;52.192;4.584;2023-04-06T12:42:22;101577.25;;;7.15;100.00
51687;BME280;37774;52.192;4.584;2023-04-06T12:45:08;101711.06;;;7.73;100.00
51687;BME280;37774;52.192;4.584;2023-04-06T12:47:55;101604.78;;;7.12;100.00
51687;BME280;37774;52.192;4.584;2023-04-06T12:50:41;101362.88;;;5.79;100.00
51687;BME280;37774;52.192;4.584;2023-04-06T12:53:26;101703.16;;;7.66;100.00
51687;BME280;37774;52.192;4.584;2023-04-06T12:56:14;101618.53;;;7.11;100.00
51687;BME280;37774;52.192;4.584;2023-04-06T12:58:59;101410.91;;;5.75;100.00
51687;BME280;37774;52.192;4.584;2023-04-06T13:01:44;101610.16;;;6.78;100.00
51687;BME280;37774;52.192;4.584;2023-04-06T13:04:32;101670.72;;;7.36;100.00
51687;BME280;37774;52.192;4.584;2023-04-06T13:07:17;101678.81;;;7.54;100.00
51687;BME280;37774;52.192;4.584;2023-04-06T13:10:04;101628.00;;;7.10;100.00
51687;BME280;37774;52.192;4.584;2023-04-06T13:12:49;101565.91;;;6.63;100.00
51687;BME280;37774;52.192;4.584;2023-04-06T13:15:35;101710.53;;;7.44;100.00
51687;BME280;37774;52.192;4.584;2023-04-06T13:18:21;101658.22;;;7.14;100.00
51687;BME280;37774;52.192;4.584;2023-04-06T13:21:08;101771.44;;;7.74;100.00
51687;BME280;37774;52.192;4.584;2023-04-06T13:23:53;101785.22;;;7.73;100.00
51687;BME280;37774;52.192;4.584;2023-04-06T13:26:39;101731.03;;;7.36;100.00
51687;BME280;37774;52.192;4.584;2023-04-06T13:29:24;101762.56;;;7.59;100.00
51687;BME280;37774;52.192;4.584;2023-04-06T13:32:09;101665.66;;;6.97;100.00
51687;BME280;37774;52.192;4.584;2023-04-06T13:34:55;101771.97;;;7.56;100.00
51687;BME280;37774;52.192;4.584;2023-04-06T13:37:42;101658.28;;;6.75;100.00
51687;BME280;37774;52.192;4.584;2023-04-06T13:40:28;101682.88;;;6.97;100.00
51687;BME280;37774;52.192;4.584;2023-04-06T13:43:14;101822.16;;;7.64;100.00
51687;BME280;37774;52.192;4.584;2023-04-06T13:45:59;101746.84;;;7.07;100.00
51687;BME280;37774;52.192;4.584;2023-04-06T13:48:45;101764.78;;;7.01;100.00
51687;BME280;37774;52.192;4.584;2023-04-06T13:51:31;101759.66;;;7.03;100.00
51687;BME280;37774;52.192;4.584;2023-04-06T13:54:18;101752.47;;;6.89;100.00
51687;BME280;37774;52.192;4.584;2023-04-06T13:57:03;101796.13;;;7.15;100.00
51687;BME280;37774;52.192;4.584;2023-04-06T13:59:49;101806.13;;;7.01;100.00
51687;BME280;37774;52.192;4.584;2023-04-06T14:02:34;101882.25;;;7.52;100.00
51687;BME280;37774;52.192;4.584;2023-04-06T14:05:20;101779.84;;;6.81;100.00
51687;BME280;37774;52.192;4.584;2023-04-06T14:08:05;101766.94;;;6.44;100.00
51687;BME280;37774;52.192;4.584;2023-04-06T14:10:52;101836.00;;;7.26;100.00
51687;BME280;37774;52.192;4.584;2023-04-06T14:13:38;101907.53;;;7.66;100.00
51687;BME280;37774;52.192;4.584;2023-04-06T14:16:23;101920.47;;;7.64;100.00
51687;BME280;37774;52.192;4.584;2023-04-06T14:19:09;101935.31;;;7.73;100.00
51687;BME280;37774;52.192;4.584;2023-04-06T14:21:55;101921.88;;;7.50;100.00
51687;BME280;37774;52.192;4.584;2023-04-06T14:24:41;101828.69;;;7.07;100.00
51687;BME280;37774;52.192;4.584;2023-04-06T14:27:28;101903.47;;;7.37;100.00
51687;BME280;37774;52.192;4.584;2023-04-06T14:30:14;101807.09;;;7.05;100.00
51687;BME280;37774;52.192;4.584;2023-04-06T14:33:00;101653.56;;;5.83;100.00
51687;BME280;37774;52.192;4.584;2023-04-06T14:35:45;101797.31;;;6.91;100.00
51687;BME280;37774;52.192;4.584;2023-04-06T14:38:31;101846.28;;;7.23;100.00